sensor_id;sensor_type;location;lat;lon;timestamp;pressure;altitude;pressure_sealevel;temperature;humidity
1652;BME280;823;49.028;8.454;2023-02-12T00:00:24;102515.69;;;9.99;50.33
1652;BME280;823;49.028;8.454;2023-02-12T00:05:24;102518.31;;;10.02;50.19
1652;BME280;823;49.028;8.454;2023-02-12T00:10:25;102516.53;;;9.95;50.42
1652;BME280;823;49.028;8.454;2023-02-12T00:15:25;102513.94;;;9.94;50.46
1652;BME280;823;49.028;8.454;2023-02-12T00:20:25;102517.41;;;9.94;50.52
1652;BME280;823;49.028;8.454;2023-02-12T00:25:26;102507.03;;;9.93;50.61
1652;BME280;823;49.028;8.454;2023-02-12T00:30:26;102507.06;;;9.94;50.36
1652;BME280;823;49.028;8.454;2023-02-12T00:35:26;102515.69;;;9.98;50.37
1652;BME280;823;49.028;8.454;2023-02-12T00:40:26;102507.06;;;9.96;50.34
1652;BME280;823;49.028;8.454;2023-02-12T00:45:27;102513.09;;;9.96;50.48
1652;BME280;823;49.028;8.454;2023-02-12T00:50:27;102526.88;;;9.97;50.32
1652;BME280;823;49.028;8.454;2023-02-12T00:55:28;102526.03;;;9.95;50.32
1652;BME280;823;49.028;8.454;2023-02-12T01:00:30;102522.59;;;9.94;50.42
1652;BME280;823;49.028;8.454;2023-02-12T01:05:31;102532.03;;;9.86;50.69
1652;BME280;823;49.028;8.454;2023-02-12T01:10:31;102534.56;;;9.77;51.33
1652;BME280;823;49.028;8.454;2023-02-12T01:15:32;102542.38;;;9.86;50.74
1652;BME280;823;49.028;8.454;2023-02-12T01:20:32;102550.06;;;9.77;51.06
1652;BME280;823;49.028;8.454;2023-02-12T01:25:32;102537.97;;;9.71;51.42
1652;BME280;823;49.028;8.454;2023-02-12T01:30:33;102531.97;;;9.72;51.22
1652;BME280;823;49.028;8.454;2023-02-12T01:35:33;102540.56;;;9.66;51.12
1652;BME280;823;49.028;8.454;2023-02-12T01:40:33;102528.50;;;9.70;51.11
1652;BME280;823;49.028;8.454;2023-02-12T01:50:36;102525.06;;;9.73;51.00
1652;BME280;823;49.028;8.454;2023-02-12T01:55:38;102527.63;;;9.66;50.93
1652;BME280;823;49.028;8.454;2023-02-12T02:00:38;102524.19;;;9.70;51.36
1652;BME280;823;49.028;8.454;2023-02-12T02:05:52;102517.31;;;9.71;50.91
1652;BME280;823;49.028;8.454;2023-02-12T02:10:54;102523.31;;;9.71;51.22
1652;BME280;823;49.028;8.454;2023-02-12T02:15:59;102515.56;;;9.73;51.02
1652;BME280;823;49.028;8.454;2023-02-12T02:21:30;102519.06;;;9.77;50.90
1652;BME280;823;49.028;8.454;2023-02-12T02:26:49;102506.13;;;9.74;50.78
1652;BME280;823;49.028;8.454;2023-02-12T02:32:07;102509.56;;;9.76;50.91
1652;BME280;823;49.028;8.454;2023-02-12T02:42:25;102502.66;;;9.75;50.81
1652;BME280;823;49.028;8.454;2023-02-12T02:47:34;102515.63;;;9.76;50.86
1652;BME280;823;49.028;8.454;2023-02-12T02:52:42;102499.22;;;9.66;51.25
1652;BME280;823;49.028;8.454;2023-02-12T02:58:10;102500.06;;;9.73;50.81
1652;BME280;823;49.028;8.454;2023-02-12T03:03:33;102496.63;;;9.71;50.95
1652;BME280;823;49.028;8.454;2023-02-12T03:08:39;102497.47;;;9.67;51.20
1652;BME280;823;49.028;8.454;2023-02-12T03:13:46;102498.31;;;9.60;51.61
1652;BME280;823;49.028;8.454;2023-02-12T03:18:55;102497.47;;;9.64;51.55
1652;BME280;823;49.028;8.454;2023-02-12T03:24:06;102496.63;;;9.66;51.29
1652;BME280;823;49.028;8.454;2023-02-12T03:29:09;102493.94;;;9.48;51.88
1652;BME280;823;49.028;8.454;2023-02-12T03:44:56;102506.06;;;9.58;51.45
1652;BME280;823;49.028;8.454;2023-02-12T03:50:14;102511.22;;;9.58;51.46
1652;BME280;823;49.028;8.454;2023-02-12T03:55:15;102510.34;;;9.58;51.68
1652;BME280;823;49.028;8.454;2023-02-12T04:00:20;102512.91;;;9.56;51.95
1652;BME280;823;49.028;8.454;2023-02-12T04:05:23;102515.47;;;9.50;51.98
1652;BME280;823;49.028;8.454;2023-02-12T04:16:06;102506.00;;;9.47;52.01
1652;BME280;823;49.028;8.454;2023-02-12T04:27:02;102519.75;;;9.46;52.31
1652;BME280;823;49.028;8.454;2023-02-12T04:37:34;102524.09;;;9.49;52.29
1652;BME280;823;49.028;8.454;2023-02-12T04:42:44;102536.94;;;9.40;52.58
1652;BME280;823;49.028;8.454;2023-02-12T04:47:45;102529.94;;;9.26;53.45
1652;BME280;823;49.028;8.454;2023-02-12T04:52:46;102538.47;;;9.13;53.75
1652;BME280;823;49.028;8.454;2023-02-12T04:57:46;102534.28;;;9.29;53.31
1652;BME280;823;49.028;8.454;2023-02-12T05:02:46;102528.22;;;9.24;53.52
1652;BME280;823;49.028;8.454;2023-02-12T05:07:47;102528.25;;;9.30;53.23
1652;BME280;823;49.028;8.454;2023-02-12T05:12:50;102541.25;;;9.37;53.12
1652;BME280;823;49.028;8.454;2023-02-12T05:17:51;102526.59;;;9.36;52.95
1652;BME280;823;49.028;8.454;2023-02-12T05:22:52;102528.28;;;9.34;53.32
1652;BME280;823;49.028;8.454;2023-02-12T05:27:52;102519.75;;;9.42;53.01
1652;BME280;823;49.028;8.454;2023-02-12T05:32:55;102519.75;;;9.43;52.92
1652;BME280;823;49.028;8.454;2023-02-12T05:37:55;102519.75;;;9.46;52.76
1652;BME280;823;49.028;8.454;2023-02-12T05:42:56;102520.59;;;9.47;52.63
1652;BME280;823;49.028;8.454;2023-02-12T05:47:56;102516.31;;;9.46;52.54
1652;BME280;823;49.028;8.454;2023-02-12T05:52:59;102522.34;;;9.51;52.86
1652;BME280;823;49.028;8.454;2023-02-12T05:57:59;102506.00;;;9.49;52.84
1652;BME280;823;49.028;8.454;2023-02-12T06:02:59;102512.91;;;9.53;52.69
1652;BME280;823;49.028;8.454;2023-02-12T06:07:59;102512.91;;;9.51;52.52
1652;BME280;823;49.028;8.454;2023-02-12T06:13:00;102507.75;;;9.50;52.76
1652;BME280;823;49.028;8.454;2023-02-12T06:18:00;102517.19;;;9.51;52.69
1652;BME280;823;49.028;8.454;2023-02-12T06:23:00;102515.41;;;9.39;52.88
1652;BME280;823;49.028;8.454;2023-02-12T06:28:01;102518.00;;;9.37;52.90
1652;BME280;823;49.028;8.454;2023-02-12T06:33:01;102535.25;;;9.42;53.12
1652;BME280;823;49.028;8.454;2023-02-12T06:38:01;102537.75;;;9.35;53.18
1652;BME280;823;49.028;8.454;2023-02-12T06:43:02;102542.06;;;9.33;52.99
1652;BME280;823;49.028;8.454;2023-02-12T06:48:02;102546.41;;;9.36;53.27
1652;BME280;823;49.028;8.454;2023-02-12T06:53:02;102550.59;;;9.23;53.71
1652;BME280;823;49.028;8.454;2023-02-12T06:58:03;102547.91;;;9.11;54.26
1652;BME280;823;49.028;8.454;2023-02-12T07:03:03;102554.00;;;9.19;54.19
1652;BME280;823;49.028;8.454;2023-02-12T07:08:03;102553.97;;;9.16;54.15
1652;BME280;823;49.028;8.454;2023-02-12T07:13:04;102548.84;;;9.19;54.34
1652;BME280;823;49.028;8.454;2023-02-12T07:18:04;102555.69;;;9.14;54.78
1652;BME280;823;49.028;8.454;2023-02-12T07:23:04;102552.31;;;9.24;54.48
1652;BME280;823;49.028;8.454;2023-02-12T07:28:05;102557.41;;;9.15;54.86
1652;BME280;823;49.028;8.454;2023-02-12T07:33:05;102563.47;;;9.18;55.10
1652;BME280;823;49.028;8.454;2023-02-12T07:38:05;102561.75;;;9.17;55.29
1652;BME280;823;49.028;8.454;2023-02-12T07:43:05;102553.22;;;9.28;55.01
1652;BME280;823;49.028;8.454;2023-02-12T07:48:06;102560.16;;;9.38;54.74
1652;BME280;823;49.028;8.454;2023-02-12T07:53:06;102553.34;;;9.49;54.72
1652;BME280;823;49.028;8.454;2023-02-12T07:58:06;102550.06;;;9.74;54.29
1652;BME280;823;49.028;8.454;2023-02-12T08:03:07;102550.97;;;9.85;54.12
1652;BME280;823;49.028;8.454;2023-02-12T08:08:07;102551.06;;;10.14;53.31
1652;BME280;823;49.028;8.454;2023-02-12T08:13:07;102545.94;;;10.22;52.75
1652;BME280;823;49.028;8.454;2023-02-12T08:18:07;102537.41;;;10.45;52.04
1652;BME280;823;49.028;8.454;2023-02-12T08:23:08;102536.56;;;10.64;51.50
1652;BME280;823;49.028;8.454;2023-02-12T08:28:08;102543.50;;;10.76;51.15
1652;BME280;823;49.028;8.454;2023-02-12T08:33:08;102547.81;;;11.00;50.77
1652;BME280;823;49.028;8.454;2023-02-12T08:38:09;102560.75;;;11.22;50.28
1652;BME280;823;49.028;8.454;2023-02-12T08:43:09;102554.69;;;11.28;50.08
1652;BME280;823;49.028;8.454;2023-02-12T08:48:09;102557.25;;;11.49;49.98
1652;BME280;823;49.028;8.454;2023-02-12T08:53:10;102554.63;;;11.57;49.76
1652;BME280;823;49.028;8.454;2023-02-12T08:58:10;102558.97;;;11.58;49.66
1652;BME280;823;49.028;8.454;2023-02-12T09:03:10;102559.81;;;11.55;49.56
1652;BME280;823;49.028;8.454;2023-02-12T09:08:11;102562.31;;;11.86;48.83
1652;BME280;823;49.028;8.454;2023-02-12T09:13:12;102562.31;;;11.92;48.54
1652;BME280;823;49.028;8.454;2023-02-12T09:18:13;102568.34;;;12.02;48.59
1652;BME280;823;49.028;8.454;2023-02-12T09:23:14;102565.78;;;12.01;48.65
1652;BME280;823;49.028;8.454;2023-02-12T09:28:14;102568.38;;;11.91;48.54
1652;BME280;823;49.028;8.454;2023-02-12T09:33:15;102571.81;;;12.00;48.03
1652;BME280;823;49.028;8.454;2023-02-12T09:38:15;102577.03;;;11.83;48.32
1652;BME280;823;49.028;8.454;2023-02-12T09:49:11;102573.50;;;12.15;48.40
1652;BME280;823;49.028;8.454;2023-02-12T09:54:17;102574.34;;;12.17;48.16
1652;BME280;823;49.028;8.454;2023-02-12T09:59:29;102569.09;;;12.34;48.27
1652;BME280;823;49.028;8.454;2023-02-12T10:04:31;102571.63;;;12.38;48.32
1652;BME280;823;49.028;8.454;2023-02-12T10:21:18;102574.94;;;12.62;47.97
1652;BME280;823;49.028;8.454;2023-02-12T10:26:29;102557.75;;;12.47;48.45
1652;BME280;823;49.028;8.454;2023-02-12T10:31:36;102562.66;;;12.86;48.29
1652;BME280;823;49.028;8.454;2023-02-12T10:36:48;102554.81;;;12.95;47.33
1652;BME280;823;49.028;8.454;2023-02-12T10:41:56;102554.59;;;13.20;46.95
1652;BME280;823;49.028;8.454;2023-02-12T10:46:58;102559.91;;;13.06;46.84
1652;BME280;823;49.028;8.454;2023-02-12T10:57:30;102548.66;;;13.08;46.91
1652;BME280;823;49.028;8.454;2023-02-12T11:02:32;102545.22;;;13.03;47.61
1652;BME280;823;49.028;8.454;2023-02-12T11:07:46;102539.94;;;13.11;46.72
1652;BME280;823;49.028;8.454;2023-02-12T11:12:47;102539.13;;;13.07;46.94
1652;BME280;823;49.028;8.454;2023-02-12T11:18:03;102527.06;;;13.02;47.20
1652;BME280;823;49.028;8.454;2023-02-12T11:23:05;102532.19;;;13.06;47.00
1652;BME280;823;49.028;8.454;2023-02-12T11:28:17;102526.06;;;13.17;47.12
1652;BME280;823;49.028;8.454;2023-02-12T11:33:29;102523.44;;;13.18;46.89
1652;BME280;823;49.028;8.454;2023-02-12T11:38:36;102515.50;;;13.32;46.96
1652;BME280;823;49.028;8.454;2023-02-12T11:43:38;102520.97;;;13.01;47.21
1652;BME280;823;49.028;8.454;2023-02-12T11:48:38;102518.25;;;13.17;46.75
1652;BME280;823;49.028;8.454;2023-02-12T11:53:47;102513.81;;;13.25;46.90
1652;BME280;823;49.028;8.454;2023-02-12T11:58:50;102511.16;;;13.33;47.16
1652;BME280;823;49.028;8.454;2023-02-12T12:19:19;102492.53;;;13.71;46.19
1652;BME280;823;49.028;8.454;2023-02-12T12:30:19;102483.28;;;13.50;46.31
1652;BME280;823;49.028;8.454;2023-02-12T12:35:28;102475.63;;;13.36;46.82
1652;BME280;823;49.028;8.454;2023-02-12T12:40:46;102472.66;;;12.82;48.06
1652;BME280;823;49.028;8.454;2023-02-12T13:07:06;102441.28;;;13.06;48.26
1652;BME280;823;49.028;8.454;2023-02-12T13:17:42;102432.31;;;13.34;47.30
1652;BME280;823;49.028;8.454;2023-02-12T13:23:03;102421.09;;;13.30;47.83
1652;BME280;823;49.028;8.454;2023-02-12T13:28:10;102421.47;;;13.69;47.02
1652;BME280;823;49.028;8.454;2023-02-12T13:33:22;102415.47;;;13.67;46.78
1652;BME280;823;49.028;8.454;2023-02-12T13:38:31;102410.31;;;13.64;47.14
1652;BME280;823;49.028;8.454;2023-02-12T13:43:44;102401.44;;;13.79;46.41
1652;BME280;823;49.028;8.454;2023-02-12T13:48:53;102407.81;;;13.55;47.08
1652;BME280;823;49.028;8.454;2023-02-12T14:04:32;102403.28;;;13.71;46.81
1652;BME280;823;49.028;8.454;2023-02-12T14:09:36;102394.09;;;13.43;47.30
1652;BME280;823;49.028;8.454;2023-02-12T14:14:40;102399.28;;;13.45;47.28
1652;BME280;823;49.028;8.454;2023-02-12T14:19:53;102392.09;;;13.64;47.06
1652;BME280;823;49.028;8.454;2023-02-12T14:24:55;102390.44;;;13.60;47.21
1652;BME280;823;49.028;8.454;2023-02-12T14:35:34;102390.19;;;13.75;47.03
1652;BME280;823;49.028;8.454;2023-02-12T14:40:36;102381.38;;;13.86;46.92
1652;BME280;823;49.028;8.454;2023-02-12T14:45:41;102384.00;;;13.84;46.76
1652;BME280;823;49.028;8.454;2023-02-12T14:50:43;102390.28;;;13.69;47.02
1652;BME280;823;49.028;8.454;2023-02-12T14:55:51;102388.25;;;13.90;45.94
1652;BME280;823;49.028;8.454;2023-02-12T15:00:54;102381.16;;;14.00;46.45
1652;BME280;823;49.028;8.454;2023-02-12T15:06:02;102380.28;;;14.01;46.20
1652;BME280;823;49.028;8.454;2023-02-12T15:16:39;102371.56;;;14.05;46.58
1652;BME280;823;49.028;8.454;2023-02-12T15:21:42;102359.47;;;14.01;46.65
1652;BME280;823;49.028;8.454;2023-02-12T15:26:50;102360.38;;;13.98;47.03
1652;BME280;823;49.028;8.454;2023-02-12T15:31:57;102363.88;;;13.97;46.83
1652;BME280;823;49.028;8.454;2023-02-12T15:37:00;102362.03;;;14.05;46.67
1652;BME280;823;49.028;8.454;2023-02-12T15:42:01;102361.38;;;13.91;46.96
1652;BME280;823;49.028;8.454;2023-02-12T15:47:11;102353.50;;;13.94;47.08
1652;BME280;823;49.028;8.454;2023-02-12T15:52:22;102344.81;;;13.95;46.95
1652;BME280;823;49.028;8.454;2023-02-12T15:57:32;102344.00;;;13.91;47.18
1652;BME280;823;49.028;8.454;2023-02-12T16:02:32;102343.28;;;13.82;47.15
1652;BME280;823;49.028;8.454;2023-02-12T16:07:34;102343.41;;;13.75;47.35
1652;BME280;823;49.028;8.454;2023-02-12T16:12:36;102339.91;;;13.76;47.25
1652;BME280;823;49.028;8.454;2023-02-12T16:17:45;102339.06;;;13.74;47.33
1652;BME280;823;49.028;8.454;2023-02-12T16:22:48;102339.25;;;13.62;47.65
1652;BME280;823;49.028;8.454;2023-02-12T16:28:14;102342.78;;;13.56;47.51
1652;BME280;823;49.028;8.454;2023-02-12T16:33:42;102356.03;;;13.39;47.83
1652;BME280;823;49.028;8.454;2023-02-12T16:49:01;102364.16;;;13.10;48.45
1652;BME280;823;49.028;8.454;2023-02-12T16:54:03;102379.91;;;12.98;48.52
1652;BME280;823;49.028;8.454;2023-02-12T16:59:05;102387.81;;;12.87;48.81
1652;BME280;823;49.028;8.454;2023-02-12T17:04:07;102387.91;;;12.76;49.14
1652;BME280;823;49.028;8.454;2023-02-12T17:09:09;102394.09;;;12.63;49.51
1652;BME280;823;49.028;8.454;2023-02-12T17:14:13;102399.41;;;12.47;49.46
1652;BME280;823;49.028;8.454;2023-02-12T17:19:14;102399.53;;;12.35;49.69
1652;BME280;823;49.028;8.454;2023-02-12T17:24:24;102403.06;;;12.26;49.78
1652;BME280;823;49.028;8.454;2023-02-12T17:29:25;102407.53;;;12.05;50.20
1652;BME280;823;49.028;8.454;2023-02-12T17:34:26;102404.16;;;11.94;50.46
1652;BME280;823;49.028;8.454;2023-02-12T17:39:26;102406.78;;;11.80;50.27
1652;BME280;823;49.028;8.454;2023-02-12T17:44:27;102412.91;;;11.68;50.99
1652;BME280;823;49.028;8.454;2023-02-12T17:49:29;102411.28;;;11.46;51.94
1652;BME280;823;49.028;8.454;2023-02-12T17:54:29;102414.75;;;11.43;51.53
1652;BME280;823;49.028;8.454;2023-02-12T17:59:30;102415.69;;;11.31;51.62
1652;BME280;823;49.028;8.454;2023-02-12T18:04:30;102422.63;;;11.15;51.99
1652;BME280;823;49.028;8.454;2023-02-12T18:09:36;102429.56;;;11.04;52.21
1652;BME280;823;49.028;8.454;2023-02-12T18:14:37;102420.94;;;10.86;53.05
1652;BME280;823;49.028;8.454;2023-02-12T18:19:37;102427.84;;;10.80;52.82
1652;BME280;823;49.028;8.454;2023-02-12T18:24:37;102436.50;;;10.62;53.28
1652;BME280;823;49.028;8.454;2023-02-12T18:29:40;102428.75;;;10.38;54.36
1652;BME280;823;49.028;8.454;2023-02-12T18:34:43;102433.88;;;10.32;54.44
1652;BME280;823;49.028;8.454;2023-02-12T18:39:44;102431.28;;;10.31;54.35
1652;BME280;823;49.028;8.454;2023-02-12T18:44:44;102423.53;;;10.20;53.98
1652;BME280;823;49.028;8.454;2023-02-12T18:49:44;102426.94;;;9.99;55.10
1652;BME280;823;49.028;8.454;2023-02-12T18:54:45;102419.19;;;9.99;55.10
1652;BME280;823;49.028;8.454;2023-02-12T18:59:45;102426.91;;;9.91;54.97
1652;BME280;823;49.028;8.454;2023-02-12T19:04:45;102426.03;;;9.78;54.97
1652;BME280;823;49.028;8.454;2023-02-12T19:09:46;102421.66;;;9.65;54.92
1652;BME280;823;49.028;8.454;2023-02-12T19:14:47;102423.28;;;9.43;55.34
1652;BME280;823;49.028;8.454;2023-02-12T19:19:50;102429.31;;;9.37;55.68
1652;BME280;823;49.028;8.454;2023-02-12T19:24:51;102432.72;;;9.30;55.88
1652;BME280;823;49.028;8.454;2023-02-12T19:29:51;102438.69;;;9.21;55.90
1652;BME280;823;49.028;8.454;2023-02-12T19:34:51;102430.03;;;9.10;55.76
1652;BME280;823;49.028;8.454;2023-02-12T19:39:52;102443.78;;;9.06;55.91
1652;BME280;823;49.028;8.454;2023-02-12T19:44:52;102436.81;;;8.97;55.93
1652;BME280;823;49.028;8.454;2023-02-12T19:49:52;102441.06;;;8.85;56.15
1652;BME280;823;49.028;8.454;2023-02-12T19:54:53;102445.28;;;8.79;56.44
1652;BME280;823;49.028;8.454;2023-02-12T19:59:54;102442.63;;;8.68;56.27
1652;BME280;823;49.028;8.454;2023-02-12T20:04:54;102453.72;;;8.56;56.58
1652;BME280;823;49.028;8.454;2023-02-12T20:09:54;102456.22;;;8.48;56.60
1652;BME280;823;49.028;8.454;2023-02-12T20:14:55;102449.25;;;8.40;56.84
1652;BME280;823;49.028;8.454;2023-02-12T20:19:55;102448.31;;;8.33;56.63
1652;BME280;823;49.028;8.454;2023-02-12T20:24:55;102449.09;;;8.21;56.85
1652;BME280;823;49.028;8.454;2023-02-12T20:29:55;102444.69;;;8.14;56.92
1652;BME280;823;49.028;8.454;2023-02-12T20:34:56;102452.34;;;8.05;57.21
1652;BME280;823;49.028;8.454;2023-02-12T20:39:56;102449.69;;;7.98;57.34
1652;BME280;823;49.028;8.454;2023-02-12T20:44:56;102449.53;;;7.83;57.52
1652;BME280;823;49.028;8.454;2023-02-12T20:49:57;102450.34;;;7.80;57.44
1652;BME280;823;49.028;8.454;2023-02-12T20:54:57;102445.06;;;7.70;57.84
1652;BME280;823;49.028;8.454;2023-02-12T20:59:57;102445.81;;;7.59;58.04
1652;BME280;823;49.028;8.454;2023-02-12T21:04:58;102438.88;;;7.54;57.76
1652;BME280;823;49.028;8.454;2023-02-12T21:09:58;102442.22;;;7.45;58.15
1652;BME280;823;49.028;8.454;2023-02-12T21:14:58;102431.81;;;7.39;58.28
1652;BME280;823;49.028;8.454;2023-02-12T21:19:59;102428.28;;;7.32;58.49
1652;BME280;823;49.028;8.454;2023-02-12T21:24:59;102423.97;;;7.29;58.75
1652;BME280;823;49.028;8.454;2023-02-12T21:30:00;102428.13;;;7.20;59.11
1652;BME280;823;49.028;8.454;2023-02-12T21:35:00;102429.06;;;7.26;59.02
1652;BME280;823;49.028;8.454;2023-02-12T21:40:01;102421.38;;;7.29;58.49
1652;BME280;823;49.028;8.454;2023-02-12T21:45:01;102420.50;;;7.26;58.92
1652;BME280;823;49.028;8.454;2023-02-12T21:50:01;102423.09;;;7.27;59.72
1652;BME280;823;49.028;8.454;2023-02-12T21:55:02;102425.84;;;7.40;60.17
1652;BME280;823;49.028;8.454;2023-02-12T22:00:03;102422.50;;;7.50;60.62
1652;BME280;823;49.028;8.454;2023-02-12T22:05:03;102432.16;;;7.66;60.43
1652;BME280;823;49.028;8.454;2023-02-12T22:10:04;102433.06;;;7.69;60.54
1652;BME280;823;49.028;8.454;2023-02-12T22:15:07;102431.47;;;7.81;60.19
1652;BME280;823;49.028;8.454;2023-02-12T22:20:08;102429.84;;;7.90;60.02
1652;BME280;823;49.028;8.454;2023-02-12T22:25:08;102442.81;;;7.97;60.43
1652;BME280;823;49.028;8.454;2023-02-12T22:30:09;102437.75;;;8.07;60.18
1652;BME280;823;49.028;8.454;2023-02-12T22:35:09;102440.44;;;8.16;60.24
1652;BME280;823;49.028;8.454;2023-02-12T22:40:10;102436.16;;;8.18;60.14
1652;BME280;823;49.028;8.454;2023-02-12T22:45:10;102441.47;;;8.33;59.67
1652;BME280;823;49.028;8.454;2023-02-12T22:50:11;102443.19;;;8.34;59.42
1652;BME280;823;49.028;8.454;2023-02-12T22:55:11;102452.69;;;8.40;59.27
1652;BME280;823;49.028;8.454;2023-02-12T23:00:12;102451.81;;;8.40;58.87
1652;BME280;823;49.028;8.454;2023-02-12T23:05:13;102455.22;;;8.35;58.94
1652;BME280;823;49.028;8.454;2023-02-12T23:10:13;102450.91;;;8.33;58.82
1652;BME280;823;49.028;8.454;2023-02-12T23:15:13;102459.41;;;8.23;59.03
1652;BME280;823;49.028;8.454;2023-02-12T23:20:14;102460.25;;;8.22;58.84
1652;BME280;823;49.028;8.454;2023-02-12T23:25:14;102455.88;;;8.11;59.16
1652;BME280;823;49.028;8.454;2023-02-12T23:30:15;102453.97;;;7.95;59.67
1652;BME280;823;49.028;8.454;2023-02-12T23:35:15;102465.13;;;7.95;59.44
1652;BME280;823;49.028;8.454;2023-02-12T23:40:16;102452.22;;;7.94;59.40
1652;BME280;823;49.028;8.454;2023-02-12T23:45:16;102446.13;;;7.84;59.21
1652;BME280;823;49.028;8.454;2023-02-12T23:50:16;102447.66;;;7.70;59.72
1652;BME280;823;49.028;8.454;2023-02-12T23:55:18;102442.47;;;7.66;59.75
